sensor_id;sensor_type;location;lat;lon;timestamp;pressure;altitude;pressure_sealevel;temperature;humidity
16481;BME280;44634;54.110;12.138;2022-11-30T00:01:28;101870.66;;;5.67;100.00
16481;BME280;44634;54.110;12.138;2022-11-30T00:03:56;101866.47;;;5.81;100.00
16481;BME280;44634;54.110;12.138;2022-11-30T00:06:24;101863.25;;;5.58;100.00
16481;BME280;44634;54.110;12.138;2022-11-30T00:08:52;101863.47;;;5.71;100.00
16481;BME280;44634;54.110;12.138;2022-11-30T00:11:22;101866.66;;;5.95;100.00
16481;BME280;44634;54.110;12.138;2022-11-30T00:13:51;101861.38;;;5.60;100.00
16481;BME280;44634;54.110;12.138;2022-11-30T00:16:19;101859.16;;;5.70;100.00
16481;BME280;44634;54.110;12.138;2022-11-30T00:18:47;101860.63;;;5.58;100.00
16481;BME280;44634;54.110;12.138;2022-11-30T00:21:15;101871.81;;;5.45;100.00
16481;BME280;44634;54.110;12.138;2022-11-30T00:23:44;101878.31;;;5.55;100.00
16481;BME280;44634;54.110;12.138;2022-11-30T00:26:14;101887.03;;;5.90;100.00
16481;BME280;44634;54.110;12.138;2022-11-30T00:28:44;101886.31;;;5.69;100.00
16481;BME280;44634;54.110;12.138;2022-11-30T00:31:14;101880.06;;;5.72;100.00
16481;BME280;44634;54.110;12.138;2022-11-30T00:33:43;101886.47;;;5.66;100.00
16481;BME280;44634;54.110;12.138;2022-11-30T00:36:12;101880.38;;;5.65;100.00
16481;BME280;44634;54.110;12.138;2022-11-30T00:38:40;101876.06;;;5.82;100.00
16481;BME280;44634;54.110;12.138;2022-11-30T00:41:08;101885.41;;;5.53;100.00
16481;BME280;44634;54.110;12.138;2022-11-30T00:43:36;101881.81;;;5.88;100.00
16481;BME280;44634;54.110;12.138;2022-11-30T00:46:06;101875.03;;;6.02;100.00
16481;BME280;44634;54.110;12.138;2022-11-30T00:48:35;101877.22;;;5.59;100.00
16481;BME280;44634;54.110;12.138;2022-11-30T00:51:04;101882.09;;;5.66;100.00
16481;BME280;44634;54.110;12.138;2022-11-30T00:53:31;101880.72;;;5.94;100.00
16481;BME280;44634;54.110;12.138;2022-11-30T00:55:59;101876.78;;;6.18;100.00
16481;BME280;44634;54.110;12.138;2022-11-30T00:58:27;101882.00;;;5.51;100.00
16481;BME280;44634;54.110;12.138;2022-11-30T01:00:55;101890.66;;;5.53;100.00
16481;BME280;44634;54.110;12.138;2022-11-30T01:03:24;101889.72;;;5.71;100.00
16481;BME280;44634;54.110;12.138;2022-11-30T01:05:52;101878.38;;;5.71;100.00
16481;BME280;44634;54.110;12.138;2022-11-30T01:08:20;101888.03;;;5.53;100.00
16481;BME280;44634;54.110;12.138;2022-11-30T01:10:47;101889.19;;;5.64;100.00
16481;BME280;44634;54.110;12.138;2022-11-30T01:13:19;101883.16;;;5.80;100.00
16481;BME280;44634;54.110;12.138;2022-11-30T01:15:47;101886.38;;;5.85;100.00
16481;BME280;44634;54.110;12.138;2022-11-30T01:18:14;101880.53;;;5.62;100.00
16481;BME280;44634;54.110;12.138;2022-11-30T01:20:44;101875.03;;;5.84;100.00
16481;BME280;44634;54.110;12.138;2022-11-30T01:23:11;101878.22;;;5.91;100.00
16481;BME280;44634;54.110;12.138;2022-11-30T01:25:39;101881.53;;;5.60;100.00
16481;BME280;44634;54.110;12.138;2022-11-30T01:28:08;101880.16;;;5.53;100.00
16481;BME280;44634;54.110;12.138;2022-11-30T01:30:36;101886.31;;;5.86;100.00
16481;BME280;44634;54.110;12.138;2022-11-30T01:33:05;101890.81;;;5.67;100.00
16481;BME280;44634;54.110;12.138;2022-11-30T01:35:33;101886.69;;;5.27;100.00
16481;BME280;44634;54.110;12.138;2022-11-30T01:38:02;101906.16;;;5.75;100.00
16481;BME280;44634;54.110;12.138;2022-11-30T01:40:29;101894.88;;;5.55;100.00
16481;BME280;44634;54.110;12.138;2022-11-30T01:42:57;101898.91;;;5.80;100.00
16481;BME280;44634;54.110;12.138;2022-11-30T01:45:25;101892.81;;;5.96;100.00
16481;BME280;44634;54.110;12.138;2022-11-30T01:47:54;101890.78;;;5.84;100.00
16481;BME280;44634;54.110;12.138;2022-11-30T01:50:27;101891.84;;;6.15;100.00
16481;BME280;44634;54.110;12.138;2022-11-30T01:52:56;101888.47;;;5.78;100.00
16481;BME280;44634;54.110;12.138;2022-11-30T01:55:28;101889.88;;;5.68;100.00
16481;BME280;44634;54.110;12.138;2022-11-30T01:58:00;101891.72;;;6.01;100.00
16481;BME280;44634;54.110;12.138;2022-11-30T02:00:30;101899.59;;;5.83;100.00
16481;BME280;44634;54.110;12.138;2022-11-30T02:03:01;101895.78;;;6.06;100.00
16481;BME280;44634;54.110;12.138;2022-11-30T02:05:30;101888.94;;;5.52;100.00
16481;BME280;44634;54.110;12.138;2022-11-30T02:07:59;101891.47;;;5.88;100.00
16481;BME280;44634;54.110;12.138;2022-11-30T02:10:31;101890.81;;;5.50;100.00
16481;BME280;44634;54.110;12.138;2022-11-30T02:13:29;101899.13;;;5.58;100.00
16481;BME280;44634;54.110;12.138;2022-11-30T02:16:06;101908.00;;;5.55;100.00
16481;BME280;44634;54.110;12.138;2022-11-30T02:18:44;101907.69;;;5.61;100.00
16481;BME280;44634;54.110;12.138;2022-11-30T02:21:17;101912.41;;;5.72;100.00
16481;BME280;44634;54.110;12.138;2022-11-30T02:24:18;101901.00;;;5.90;100.00
16481;BME280;44634;54.110;12.138;2022-11-30T02:27:02;101900.97;;;5.56;100.00
16481;BME280;44634;54.110;12.138;2022-11-30T02:29:39;101897.25;;;5.77;100.00
16481;BME280;44634;54.110;12.138;2022-11-30T02:32:11;101898.66;;;6.02;100.00
16481;BME280;44634;54.110;12.138;2022-11-30T02:34:42;101897.91;;;5.65;100.00
16481;BME280;44634;54.110;12.138;2022-11-30T02:37:12;101907.31;;;5.69;100.00
16481;BME280;44634;54.110;12.138;2022-11-30T02:39:42;101911.72;;;5.51;100.00
16481;BME280;44634;54.110;12.138;2022-11-30T02:42:11;101918.13;;;5.80;100.00
16481;BME280;44634;54.110;12.138;2022-11-30T02:44:42;101931.03;;;5.31;100.00
16481;BME280;44634;54.110;12.138;2022-11-30T02:47:19;101923.06;;;5.69;100.00
16481;BME280;44634;54.110;12.138;2022-11-30T02:49:52;101914.56;;;5.81;100.00
16481;BME280;44634;54.110;12.138;2022-11-30T02:52:22;101915.59;;;5.96;100.00
16481;BME280;44634;54.110;12.138;2022-11-30T02:54:52;101910.16;;;5.82;100.00
16481;BME280;44634;54.110;12.138;2022-11-30T02:57:20;101914.94;;;5.74;100.00
16481;BME280;44634;54.110;12.138;2022-11-30T02:59:49;101915.41;;;5.82;100.00
16481;BME280;44634;54.110;12.138;2022-11-30T03:02:17;101924.19;;;5.63;100.00
16481;BME280;44634;54.110;12.138;2022-11-30T03:04:45;101915.72;;;5.76;100.00
16481;BME280;44634;54.110;12.138;2022-11-30T03:07:13;101920.50;;;5.85;100.00
16481;BME280;44634;54.110;12.138;2022-11-30T03:09:40;101926.38;;;6.07;100.00
16481;BME280;44634;54.110;12.138;2022-11-30T03:12:08;101917.41;;;5.77;100.00
16481;BME280;44634;54.110;12.138;2022-11-30T03:14:36;101927.47;;;5.68;100.00
16481;BME280;44634;54.110;12.138;2022-11-30T03:17:05;101925.19;;;5.61;100.00
16481;BME280;44634;54.110;12.138;2022-11-30T03:19:33;101931.47;;;5.76;100.00
16481;BME280;44634;54.110;12.138;2022-11-30T03:22:01;101933.16;;;5.59;100.00
16481;BME280;44634;54.110;12.138;2022-11-30T03:24:29;101946.03;;;5.64;100.00
16481;BME280;44634;54.110;12.138;2022-11-30T03:26:56;101951.91;;;5.69;100.00
16481;BME280;44634;54.110;12.138;2022-11-30T03:29:24;101940.72;;;5.83;100.00
16481;BME280;44634;54.110;12.138;2022-11-30T03:31:52;101930.63;;;5.92;100.00
16481;BME280;44634;54.110;12.138;2022-11-30T03:34:21;101934.00;;;5.77;100.00
16481;BME280;44634;54.110;12.138;2022-11-30T03:36:52;101938.38;;;5.42;100.00
16481;BME280;44634;54.110;12.138;2022-11-30T03:39:20;101957.41;;;5.82;100.00
16481;BME280;44634;54.110;12.138;2022-11-30T03:41:48;101964.06;;;5.35;100.00
16481;BME280;44634;54.110;12.138;2022-11-30T03:44:17;101974.41;;;5.38;100.00
16481;BME280;44634;54.110;12.138;2022-11-30T03:46:45;101987.06;;;5.48;100.00
16481;BME280;44634;54.110;12.138;2022-11-30T03:49:12;101984.69;;;5.60;100.00
16481;BME280;44634;54.110;12.138;2022-11-30T03:51:41;102000.97;;;5.50;100.00
16481;BME280;44634;54.110;12.138;2022-11-30T03:54:09;102001.75;;;5.33;100.00
16481;BME280;44634;54.110;12.138;2022-11-30T03:56:37;102008.97;;;5.47;100.00
16481;BME280;44634;54.110;12.138;2022-11-30T03:59:05;102010.19;;;5.40;100.00
16481;BME280;44634;54.110;12.138;2022-11-30T04:01:32;102005.78;;;5.76;100.00
16481;BME280;44634;54.110;12.138;2022-11-30T04:04:02;101997.19;;;5.55;100.00
16481;BME280;44634;54.110;12.138;2022-11-30T04:06:30;102012.91;;;5.38;100.00
16481;BME280;44634;54.110;12.138;2022-11-30T04:08:59;102031.09;;;5.77;100.00
16481;BME280;44634;54.110;12.138;2022-11-30T04:11:27;102023.16;;;5.43;100.00
16481;BME280;44634;54.110;12.138;2022-11-30T04:13:54;102025.75;;;5.61;100.00
16481;BME280;44634;54.110;12.138;2022-11-30T04:16:22;102010.72;;;5.65;100.00
16481;BME280;44634;54.110;12.138;2022-11-30T04:18:50;101999.06;;;5.71;100.00
16481;BME280;44634;54.110;12.138;2022-11-30T04:21:18;101990.19;;;5.73;100.00
16481;BME280;44634;54.110;12.138;2022-11-30T04:23:46;101985.63;;;5.95;100.00
16481;BME280;44634;54.110;12.138;2022-11-30T04:26:15;101980.72;;;5.88;100.00
16481;BME280;44634;54.110;12.138;2022-11-30T04:28:43;101971.00;;;6.07;100.00
16481;BME280;44634;54.110;12.138;2022-11-30T04:31:11;101964.03;;;5.89;100.00
16481;BME280;44634;54.110;12.138;2022-11-30T04:33:39;101967.72;;;5.50;100.00
16481;BME280;44634;54.110;12.138;2022-11-30T04:36:15;101964.03;;;5.72;100.00
16481;BME280;44634;54.110;12.138;2022-11-30T04:38:45;101974.00;;;5.65;100.00
16481;BME280;44634;54.110;12.138;2022-11-30T04:41:14;101976.91;;;5.95;100.00
16481;BME280;44634;54.110;12.138;2022-11-30T04:43:42;101970.47;;;5.47;100.00
16481;BME280;44634;54.110;12.138;2022-11-30T04:46:10;101980.09;;;5.65;100.00
16481;BME280;44634;54.110;12.138;2022-11-30T04:48:38;101985.19;;;5.86;100.00
16481;BME280;44634;54.110;12.138;2022-11-30T04:51:07;101978.44;;;5.63;100.00
16481;BME280;44634;54.110;12.138;2022-11-30T04:53:36;101982.13;;;5.42;100.00
16481;BME280;44634;54.110;12.138;2022-11-30T04:56:05;101991.44;;;5.83;100.00
16481;BME280;44634;54.110;12.138;2022-11-30T04:58:35;101986.28;;;5.46;100.00
16481;BME280;44634;54.110;12.138;2022-11-30T05:01:04;101992.53;;;5.43;100.00
16481;BME280;44634;54.110;12.138;2022-11-30T05:03:32;102006.34;;;5.65;100.00
16481;BME280;44634;54.110;12.138;2022-11-30T05:06:00;101987.72;;;5.70;100.00
16481;BME280;44634;54.110;12.138;2022-11-30T05:08:27;101997.69;;;5.81;100.00
16481;BME280;44634;54.110;12.138;2022-11-30T05:10:55;101996.53;;;5.86;100.00
16481;BME280;44634;54.110;12.138;2022-11-30T05:13:24;101996.75;;;5.64;100.00
16481;BME280;44634;54.110;12.138;2022-11-30T05:15:53;101994.31;;;5.79;100.00
16481;BME280;44634;54.110;12.138;2022-11-30T05:18:21;101996.63;;;5.85;100.00
16481;BME280;44634;54.110;12.138;2022-11-30T05:20:50;101992.06;;;5.71;100.00
16481;BME280;44634;54.110;12.138;2022-11-30T05:23:18;101990.03;;;5.95;100.00
16481;BME280;44634;54.110;12.138;2022-11-30T05:25:46;101983.56;;;5.83;100.00
16481;BME280;44634;54.110;12.138;2022-11-30T05:28:14;101981.25;;;5.77;100.00
16481;BME280;44634;54.110;12.138;2022-11-30T05:30:42;101995.47;;;5.37;100.00
16481;BME280;44634;54.110;12.138;2022-11-30T05:33:12;101997.59;;;5.65;100.00
16481;BME280;44634;54.110;12.138;2022-11-30T05:35:40;101997.38;;;5.70;100.00
16481;BME280;44634;54.110;12.138;2022-11-30T05:38:07;101996.81;;;5.63;100.00
16481;BME280;44634;54.110;12.138;2022-11-30T05:40:35;101996.28;;;5.74;100.00
16481;BME280;44634;54.110;12.138;2022-11-30T05:43:03;101993.06;;;5.68;100.00
16481;BME280;44634;54.110;12.138;2022-11-30T05:45:31;102000.56;;;5.40;100.00
16481;BME280;44634;54.110;12.138;2022-11-30T05:47:59;102002.19;;;5.79;100.00
16481;BME280;44634;54.110;12.138;2022-11-30T05:50:28;101989.66;;;5.30;100.00
16481;BME280;44634;54.110;12.138;2022-11-30T05:52:56;101997.47;;;5.85;100.00
16481;BME280;44634;54.110;12.138;2022-11-30T05:55:26;101994.09;;;6.01;100.00
16481;BME280;44634;54.110;12.138;2022-11-30T05:57:54;101985.34;;;5.83;100.00
16481;BME280;44634;54.110;12.138;2022-11-30T06:00:22;101992.66;;;5.95;100.00
16481;BME280;44634;54.110;12.138;2022-11-30T06:02:54;101989.44;;;5.88;100.00
16481;BME280;44634;54.110;12.138;2022-11-30T06:05:22;101993.50;;;5.77;100.00
16481;BME280;44634;54.110;12.138;2022-11-30T06:07:52;101992.13;;;5.70;100.00
16481;BME280;44634;54.110;12.138;2022-11-30T06:10:20;101991.88;;;5.74;100.00
16481;BME280;44634;54.110;12.138;2022-11-30T06:12:50;101992.97;;;5.87;100.00
16481;BME280;44634;54.110;12.138;2022-11-30T06:15:18;101990.16;;;5.92;100.00
16481;BME280;44634;54.110;12.138;2022-11-30T06:17:46;101990.16;;;5.92;100.00
16481;BME280;44634;54.110;12.138;2022-11-30T06:20:13;101980.72;;;5.88;100.00
16481;BME280;44634;54.110;12.138;2022-11-30T06:22:43;101980.59;;;6.08;100.00
16481;BME280;44634;54.110;12.138;2022-11-30T06:25:13;101986.56;;;5.94;100.00
16481;BME280;44634;54.110;12.138;2022-11-30T06:27:41;101995.84;;;5.47;100.00
16481;BME280;44634;54.110;12.138;2022-11-30T06:30:10;102011.84;;;5.59;100.00
16481;BME280;44634;54.110;12.138;2022-11-30T06:32:38;102028.91;;;4.94;100.00
16481;BME280;44634;54.110;12.138;2022-11-30T06:35:06;102058.53;;;4.96;100.00
16481;BME280;44634;54.110;12.138;2022-11-30T06:37:34;102093.75;;;5.10;100.00
16481;BME280;44634;54.110;12.138;2022-11-30T06:40:03;102090.41;;;5.62;100.00
16481;BME280;44634;54.110;12.138;2022-11-30T06:42:36;102057.34;;;5.77;100.00
16481;BME280;44634;54.110;12.138;2022-11-30T06:45:05;102044.50;;;5.90;100.00
16481;BME280;44634;54.110;12.138;2022-11-30T06:47:33;102037.84;;;5.64;100.00
16481;BME280;44634;54.110;12.138;2022-11-30T06:50:01;102036.50;;;5.38;100.00
16481;BME280;44634;54.110;12.138;2022-11-30T06:52:29;102041.38;;;5.46;100.00
16481;BME280;44634;54.110;12.138;2022-11-30T06:54:57;102043.38;;;6.13;100.00
16481;BME280;44634;54.110;12.138;2022-11-30T06:57:26;102036.69;;;5.52;100.00
16481;BME280;44634;54.110;12.138;2022-11-30T06:59:56;102039.81;;;5.78;100.00
16481;BME280;44634;54.110;12.138;2022-11-30T07:02:24;102059.94;;;5.03;100.00
16481;BME280;44634;54.110;12.138;2022-11-30T07:04:51;102079.81;;;5.28;100.00
16481;BME280;44634;54.110;12.138;2022-11-30T07:07:19;102104.41;;;5.44;100.00
16481;BME280;44634;54.110;12.138;2022-11-30T07:09:48;102089.28;;;5.30;100.00
16481;BME280;44634;54.110;12.138;2022-11-30T07:12:16;102100.44;;;5.54;100.00
16481;BME280;44634;54.110;12.138;2022-11-30T07:14:44;102107.44;;;5.35;100.00
16481;BME280;44634;54.110;12.138;2022-11-30T07:17:13;102101.22;;;5.56;100.00
16481;BME280;44634;54.110;12.138;2022-11-30T07:19:41;102078.72;;;5.70;100.00
16481;BME280;44634;54.110;12.138;2022-11-30T07:22:09;102079.22;;;5.59;100.00
16481;BME280;44634;54.110;12.138;2022-11-30T07:24:37;102076.38;;;5.63;100.00
16481;BME280;44634;54.110;12.138;2022-11-30T07:27:22;102084.50;;;5.76;100.00
16481;BME280;44634;54.110;12.138;2022-11-30T07:29:50;102081.81;;;5.78;100.00
16481;BME280;44634;54.110;12.138;2022-11-30T07:32:20;102094.13;;;5.58;100.00
16481;BME280;44634;54.110;12.138;2022-11-30T07:34:47;102086.28;;;5.76;100.00
16481;BME280;44634;54.110;12.138;2022-11-30T07:37:17;102098.38;;;5.42;100.00
16481;BME280;44634;54.110;12.138;2022-11-30T07:39:44;102121.41;;;5.54;100.00
16481;BME280;44634;54.110;12.138;2022-11-30T07:42:12;102130.38;;;5.50;100.00
16481;BME280;44634;54.110;12.138;2022-11-30T07:44:40;102118.31;;;5.65;100.00
16481;BME280;44634;54.110;12.138;2022-11-30T07:47:08;102122.44;;;5.88;100.00
16481;BME280;44634;54.110;12.138;2022-11-30T07:49:37;102126.03;;;5.68;100.00
16481;BME280;44634;54.110;12.138;2022-11-30T07:52:05;102123.25;;;5.90;100.00
16481;BME280;44634;54.110;12.138;2022-11-30T07:54:33;102111.06;;;5.70;100.00
16481;BME280;44634;54.110;12.138;2022-11-30T07:57:01;102105.31;;;5.62;100.00
16481;BME280;44634;54.110;12.138;2022-11-30T07:59:29;102124.94;;;5.16;100.00
16481;BME280;44634;54.110;12.138;2022-11-30T08:01:57;102152.91;;;5.92;100.00
16481;BME280;44634;54.110;12.138;2022-11-30T08:04:26;102152.75;;;5.76;100.00
16481;BME280;44634;54.110;12.138;2022-11-30T08:06:55;102178.66;;;5.65;100.00
16481;BME280;44634;54.110;12.138;2022-11-30T08:09:22;102186.16;;;5.54;100.00
16481;BME280;44634;54.110;12.138;2022-11-30T08:11:50;102176.44;;;5.37;100.00
16481;BME280;44634;54.110;12.138;2022-11-30T08:14:18;102199.28;;;5.54;100.00
16481;BME280;44634;54.110;12.138;2022-11-30T08:16:46;102197.56;;;5.53;100.00
16481;BME280;44634;54.110;12.138;2022-11-30T08:19:14;102193.31;;;5.50;100.00
16481;BME280;44634;54.110;12.138;2022-11-30T08:21:42;102194.94;;;5.72;100.00
16481;BME280;44634;54.110;12.138;2022-11-30T08:24:11;102180.69;;;5.77;100.00
16481;BME280;44634;54.110;12.138;2022-11-30T08:26:40;102170.56;;;5.51;100.00
16481;BME280;44634;54.110;12.138;2022-11-30T08:29:08;102175.44;;;5.58;100.00
16481;BME280;44634;54.110;12.138;2022-11-30T08:31:36;102180.50;;;5.82;100.00
16481;BME280;44634;54.110;12.138;2022-11-30T08:34:06;102182.25;;;5.62;100.00
16481;BME280;44634;54.110;12.138;2022-11-30T08:36:34;102207.22;;;5.52;100.00
16481;BME280;44634;54.110;12.138;2022-11-30T08:39:03;102212.69;;;5.85;100.00
16481;BME280;44634;54.110;12.138;2022-11-30T08:41:34;102214.28;;;5.11;100.00
16481;BME280;44634;54.110;12.138;2022-11-30T08:44:02;102246.56;;;5.32;100.00
16481;BME280;44634;54.110;12.138;2022-11-30T08:46:30;102256.38;;;5.47;100.00
16481;BME280;44634;54.110;12.138;2022-11-30T08:49:17;102268.47;;;5.31;100.00
16481;BME280;44634;54.110;12.138;2022-11-30T08:51:49;102272.00;;;5.30;100.00
16481;BME280;44634;54.110;12.138;2022-11-30T08:54:38;102270.25;;;5.30;100.00
16481;BME280;44634;54.110;12.138;2022-11-30T08:57:09;102269.31;;;5.11;100.00
16481;BME280;44634;54.110;12.138;2022-11-30T08:59:37;102287.34;;;5.19;100.00
16481;BME280;44634;54.110;12.138;2022-11-30T09:02:05;102308.78;;;5.08;100.00
16481;BME280;44634;54.110;12.138;2022-11-30T09:04:33;102352.53;;;5.28;100.00
16481;BME280;44634;54.110;12.138;2022-11-30T09:07:01;102365.25;;;5.37;100.00
16481;BME280;44634;54.110;12.138;2022-11-30T09:09:29;102367.75;;;5.40;100.00
16481;BME280;44634;54.110;12.138;2022-11-30T09:11:57;102369.59;;;5.38;100.00
16481;BME280;44634;54.110;12.138;2022-11-30T09:14:27;102395.84;;;5.79;100.00
16481;BME280;44634;54.110;12.138;2022-11-30T09:16:54;102395.13;;;5.33;100.00
16481;BME280;44634;54.110;12.138;2022-11-30T09:19:24;102422.47;;;5.70;100.00
16481;BME280;44634;54.110;12.138;2022-11-30T09:21:52;102415.25;;;5.54;100.00
16481;BME280;44634;54.110;12.138;2022-11-30T09:24:19;102406.97;;;5.43;100.00
16481;BME280;44634;54.110;12.138;2022-11-30T09:26:47;102404.81;;;5.53;100.00
16481;BME280;44634;54.110;12.138;2022-11-30T09:29:15;102406.25;;;5.18;100.00
16481;BME280;44634;54.110;12.138;2022-11-30T09:31:44;102416.31;;;5.28;100.00
16481;BME280;44634;54.110;12.138;2022-11-30T09:34:12;102444.78;;;5.16;100.00
16481;BME280;44634;54.110;12.138;2022-11-30T09:36:39;102476.63;;;5.28;100.00
16481;BME280;44634;54.110;12.138;2022-11-30T09:39:09;102499.56;;;5.45;100.00
16481;BME280;44634;54.110;12.138;2022-11-30T09:44:46;102457.72;;;5.84;100.00
16481;BME280;44634;54.110;12.138;2022-11-30T09:47:38;102449.53;;;5.92;100.00
16481;BME280;44634;54.110;12.138;2022-11-30T09:50:12;102441.84;;;5.87;100.00
16481;BME280;44634;54.110;12.138;2022-11-30T09:52:42;102456.47;;;5.94;100.00
16481;BME280;44634;54.110;12.138;2022-11-30T09:55:15;102456.94;;;5.40;100.00
16481;BME280;44634;54.110;12.138;2022-11-30T09:57:46;102464.94;;;5.37;100.00
16481;BME280;44634;54.110;12.138;2022-11-30T10:00:17;102451.38;;;5.90;100.00
16481;BME280;44634;54.110;12.138;2022-11-30T10:02:49;102438.34;;;5.87;100.00
16481;BME280;44634;54.110;12.138;2022-11-30T10:05:20;102429.91;;;5.80;100.00
16481;BME280;44634;54.110;12.138;2022-11-30T10:08:08;102431.78;;;5.56;100.00
16481;BME280;44634;54.110;12.138;2022-11-30T10:10:50;102417.06;;;5.94;100.00
16481;BME280;44634;54.110;12.138;2022-11-30T10:13:36;102414.41;;;6.15;100.00
16481;BME280;44634;54.110;12.138;2022-11-30T10:16:13;102412.78;;;5.92;100.00
16481;BME280;44634;54.110;12.138;2022-11-30T10:18:50;102406.31;;;5.38;100.00
16481;BME280;44634;54.110;12.138;2022-11-30T10:21:33;102429.13;;;5.99;100.00
16481;BME280;44634;54.110;12.138;2022-11-30T10:24:17;102403.78;;;6.18;100.00
16481;BME280;44634;54.110;12.138;2022-11-30T10:26:52;102387.63;;;6.27;100.00
16481;BME280;44634;54.110;12.138;2022-11-30T10:29:27;102390.81;;;5.94;100.00
16481;BME280;44634;54.110;12.138;2022-11-30T10:31:59;102408.34;;;6.33;100.00
16481;BME280;44634;54.110;12.138;2022-11-30T10:34:31;102385.69;;;5.91;100.00
16481;BME280;44634;54.110;12.138;2022-11-30T10:37:02;102390.31;;;6.25;100.00
16481;BME280;44634;54.110;12.138;2022-11-30T10:39:36;102381.59;;;6.05;100.00
16481;BME280;44634;54.110;12.138;2022-11-30T10:42:09;102371.56;;;6.14;100.00
16481;BME280;44634;54.110;12.138;2022-11-30T10:44:41;102367.00;;;6.18;100.00
16481;BME280;44634;54.110;12.138;2022-11-30T10:47:13;102364.84;;;5.87;100.00
16481;BME280;44634;54.110;12.138;2022-11-30T10:49:48;102354.72;;;6.18;100.00
16481;BME280;44634;54.110;12.138;2022-11-30T10:52:19;102347.78;;;6.17;100.00
16481;BME280;44634;54.110;12.138;2022-11-30T10:54:52;102356.50;;;6.18;100.00
16481;BME280;44634;54.110;12.138;2022-11-30T10:57:30;102322.00;;;6.44;100.00
16481;BME280;44634;54.110;12.138;2022-11-30T11:00:03;102295.72;;;6.44;100.00
16481;BME280;44634;54.110;12.138;2022-11-30T11:02:38;102307.69;;;5.54;100.00
16481;BME280;44634;54.110;12.138;2022-11-30T11:05:15;102332.16;;;5.55;100.00
16481;BME280;44634;54.110;12.138;2022-11-30T11:07:47;102367.84;;;5.79;100.00
16481;BME280;44634;54.110;12.138;2022-11-30T11:10:18;102378.13;;;6.04;100.00
16481;BME280;44634;54.110;12.138;2022-11-30T11:12:48;102360.59;;;6.05;100.00
16481;BME280;44634;54.110;12.138;2022-11-30T11:15:19;102363.38;;;6.20;100.00
16481;BME280;44634;54.110;12.138;2022-11-30T11:17:48;102338.66;;;5.66;100.00
16481;BME280;44634;54.110;12.138;2022-11-30T11:20:30;102359.09;;;5.99;100.00
16481;BME280;44634;54.110;12.138;2022-11-30T11:22:58;102359.22;;;5.55;100.00
16481;BME280;44634;54.110;12.138;2022-11-30T11:25:31;102385.22;;;5.82;100.00
16481;BME280;44634;54.110;12.138;2022-11-30T11:28:03;102373.78;;;5.62;100.00
16481;BME280;44634;54.110;12.138;2022-11-30T11:30:35;102375.25;;;5.70;100.00
16481;BME280;44634;54.110;12.138;2022-11-30T11:33:18;102365.22;;;5.79;100.00
16481;BME280;44634;54.110;12.138;2022-11-30T11:35:49;102363.66;;;5.95;100.00
16481;BME280;44634;54.110;12.138;2022-11-30T11:38:22;102347.44;;;6.25;100.00
16481;BME280;44634;54.110;12.138;2022-11-30T11:40:55;102348.84;;;5.93;100.00
16481;BME280;44634;54.110;12.138;2022-11-30T11:43:26;102352.19;;;5.76;100.00
16481;BME280;44634;54.110;12.138;2022-11-30T11:45:57;102368.22;;;5.90;100.00
16481;BME280;44634;54.110;12.138;2022-11-30T11:48:29;102363.72;;;5.94;100.00
16481;BME280;44634;54.110;12.138;2022-11-30T11:51:02;102339.72;;;6.02;100.00
16481;BME280;44634;54.110;12.138;2022-11-30T11:53:38;102332.72;;;6.02;100.00
16481;BME280;44634;54.110;12.138;2022-11-30T11:56:19;102335.34;;;6.02;100.00
16481;BME280;44634;54.110;12.138;2022-11-30T11:58:55;102321.50;;;6.17;100.00
16481;BME280;44634;54.110;12.138;2022-11-30T12:01:35;102320.06;;;5.71;100.00
16481;BME280;44634;54.110;12.138;2022-11-30T12:04:29;102330.84;;;6.04;100.00
16481;BME280;44634;54.110;12.138;2022-11-30T12:07:04;102318.31;;;6.11;100.00
16481;BME280;44634;54.110;12.138;2022-11-30T12:09:50;102315.47;;;6.53;100.00
16481;BME280;44634;54.110;12.138;2022-11-30T12:12:21;102300.56;;;6.35;100.00
16481;BME280;44634;54.110;12.138;2022-11-30T12:14:49;102281.00;;;6.23;100.00
16481;BME280;44634;54.110;12.138;2022-11-30T12:17:28;102270.69;;;6.18;100.00
16481;BME280;44634;54.110;12.138;2022-11-30T12:20:10;102271.00;;;5.93;100.00
16481;BME280;44634;54.110;12.138;2022-11-30T12:22:50;102285.19;;;6.08;100.00
16481;BME280;44634;54.110;12.138;2022-11-30T12:25:24;102283.63;;;6.23;100.00
16481;BME280;44634;54.110;12.138;2022-11-30T12:28:00;102267.22;;;6.37;100.00
16481;BME280;44634;54.110;12.138;2022-11-30T12:30:39;102282.69;;;6.24;100.00
16481;BME280;44634;54.110;12.138;2022-11-30T12:33:14;102277.84;;;6.34;100.00
16481;BME280;44634;54.110;12.138;2022-11-30T12:35:57;102267.13;;;6.19;100.00
16481;BME280;44634;54.110;12.138;2022-11-30T12:38:38;102266.59;;;5.94;100.00
16481;BME280;44634;54.110;12.138;2022-11-30T12:41:25;102252.44;;;6.88;100.00
16481;BME280;44634;54.110;12.138;2022-11-30T12:44:04;102215.97;;;6.28;100.00
16481;BME280;44634;54.110;12.138;2022-11-30T12:46:42;102220.03;;;6.52;100.00
16481;BME280;44634;54.110;12.138;2022-11-30T12:49:22;102211.63;;;6.80;100.00
16481;BME280;44634;54.110;12.138;2022-11-30T12:52:02;102210.50;;;6.50;100.00
16481;BME280;44634;54.110;12.138;2022-11-30T12:54:40;102219.59;;;6.25;100.00
16481;BME280;44634;54.110;12.138;2022-11-30T12:57:15;102218.06;;;6.39;100.00
16481;BME280;44634;54.110;12.138;2022-11-30T12:59:50;102215.91;;;6.47;100.00
16481;BME280;44634;54.110;12.138;2022-11-30T13:02:40;102223.22;;;6.76;100.00